Time;durP1;ratioP1;P1;durP2;ratioP2;P2;SDS_P1;SDS_P2;PMS_P1;PMS_P2;Temp;Humidity;BMP_temperature;BMP_pressure;BME280_temperature;BME280_humidity;BME280_pressure;Samples;Min_cycle;Max_cycle;Signal;HPM_P1;HPM_P2
2023/05/02 00:00:54;;;;;;;4.15;1.80;;;;;;;;;;6311099;22;20043;-82
2023/05/02 00:03:21;;;;;;;5.00;1.90;;;;;;;;;;6312811;22;20059;-80
2023/05/02 00:05:46;;;;;;;6.93;1.98;;;;;;;;;;6314476;22;19995;-90
2023/05/02 00:08:12;;;;;;;5.70;1.70;;;;;;;;;;6302895;22;20029;-81
2023/05/02 00:10:37;;;;;;;4.57;1.70;;;;;;;;;;6303574;22;20031;-76
2023/05/02 00:13:03;;;;;;;4.20;1.70;;;;;;;;;;6309496;22;20021;-95
2023/05/02 00:15:28;;;;;;;4.57;1.70;;;;;;;;;;6310684;22;20003;-91
2023/05/02 00:17:53;;;;;;;5.00;1.70;;;;;;;;;;6306819;22;20078;-93
2023/05/02 00:20:19;;;;;;;3.28;1.58;;;;;;;;;;6306980;22;20041;-92
2023/05/02 00:22:44;;;;;;;5.40;1.80;;;;;;;;;;6307151;22;20083;-87
2023/05/02 00:25:14;;;;;;;5.25;1.90;;;;;;;;;;6279043;22;20322;-92
2023/05/02 00:27:40;;;;;;;5.35;1.60;;;;;;;;;;6306686;22;20031;-93
2023/05/02 00:30:06;;;;;;;4.68;1.85;;;;;;;;;;6307380;22;19999;-95
2023/05/02 00:32:35;;;;;;;6.93;1.73;;;;;;;;;;6307566;22;19999;-91
2023/05/02 00:35:00;;;;;;;5.07;1.70;;;;;;;;;;6307568;22;20019;-94
2023/05/02 00:37:27;;;;;;;4.68;1.60;;;;;;;;;;6307457;22;20011;-91
2023/05/02 00:39:53;;;;;;;4.38;1.60;;;;;;;;;;6279356;22;20003;-85
2023/05/02 00:42:18;;;;;;;4.72;1.70;;;;;;;;;;6306924;22;20420;-90
2023/05/02 00:44:43;;;;;;;6.65;2.05;;;;;;;;;;6306675;22;20130;-94
2023/05/02 00:47:09;;;;;;;7.63;2.00;;;;;;;;;;6278159;22;20003;-93
2023/05/02 00:49:34;;;;;;;8.63;1.70;;;;;;;;;;6312017;22;20000;-90
2023/05/02 00:52:01;;;;;;;3.17;1.60;;;;;;;;;;6315138;22;20007;-92
2023/05/02 00:54:27;;;;;;;3.60;1.60;;;;;;;;;;6317620;22;20037;-93
2023/05/02 00:56:52;;;;;;;4.80;2.00;;;;;;;;;;6322293;22;20003;-95
2023/05/02 00:59:18;;;;;;;3.72;1.63;;;;;;;;;;6287316;22;20573;-89
2023/05/02 01:01:49;;;;;;;5.38;1.92;;;;;;;;;;6305373;22;19999;-91
2023/05/02 01:04:18;;;;;;;3.70;1.60;;;;;;;;;;6303889;22;20003;-86
2023/05/02 01:07:03;;;;;;;5.40;1.95;;;;;;;;;;6304148;22;20001;-87
2023/05/02 01:09:56;;;;;;;7.97;1.75;;;;;;;;;;6277739;22;20064;-91
2023/05/02 01:12:37;;;;;;;5.03;1.80;;;;;;;;;;6304709;22;20490;-88
2023/05/02 01:15:06;;;;;;;5.47;1.88;;;;;;;;;;6305097;22;20148;-86
2023/05/02 01:17:33;;;;;;;5.22;2.08;;;;;;;;;;6305094;22;19999;-89
2023/05/02 01:20:07;;;;;;;6.60;2.03;;;;;;;;;;6304752;22;19999;-90
2023/05/02 01:22:34;;;;;;;7.80;1.85;;;;;;;;;;6275412;22;19999;-90
2023/05/02 01:25:37;;;;;;;5.72;2.30;;;;;;;;;;6276337;22;20003;-88
2023/05/02 01:28:17;;;;;;;4.68;1.92;;;;;;;;;;6303607;22;20037;-90
2023/05/02 01:30:45;;;;;;;7.20;2.05;;;;;;;;;;6276538;22;20027;-91
2023/05/02 01:33:13;;;;;;;7.07;2.05;;;;;;;;;;6305438;22;20007;-91
2023/05/02 01:35:41;;;;;;;6.75;1.70;;;;;;;;;;6303920;22;20064;-91
2023/05/02 01:38:07;;;;;;;4.80;1.90;;;;;;;;;;6301396;22;20011;-90
2023/05/02 01:40:33;;;;;;;4.25;2.10;;;;;;;;;;6302888;22;20027;-92
2023/05/02 01:43:03;;;;;;;7.88;2.10;;;;;;;;;;6303996;22;20006;-93
2023/05/02 01:45:30;;;;;;;5.53;1.90;;;;;;;;;;6305492;22;20003;-92
2023/05/02 01:47:57;;;;;;;5.15;2.17;;;;;;;;;;6306348;22;20023;-89
2023/05/02 01:50:23;;;;;;;4.93;1.92;;;;;;;;;;6306113;22;20099;-93
2023/05/02 01:52:52;;;;;;;4.15;2.10;;;;;;;;;;6278210;22;20007;-89
2023/05/02 01:55:17;;;;;;;5.35;1.90;;;;;;;;;;6305027;22;20033;-90
2023/05/02 01:57:45;;;;;;;4.32;1.92;;;;;;;;;;6303811;22;20003;-90
2023/05/02 02:00:12;;;;;;;5.63;2.03;;;;;;;;;;6278025;22;20011;-92
2023/05/02 02:02:40;;;;;;;4.03;2.00;;;;;;;;;;6305890;22;20575;-92
2023/05/02 02:05:08;;;;;;;7.13;2.03;;;;;;;;;;6278382;22;20030;-91
2023/05/02 02:07:33;;;;;;;4.70;1.85;;;;;;;;;;6303908;22;20000;-91
2023/05/02 02:09:59;;;;;;;7.07;2.22;;;;;;;;;;6306579;22;19999;-93
2023/05/02 02:12:29;;;;;;;3.42;2.13;;;;;;;;;;6306359;22;19999;-87
2023/05/02 02:15:02;;;;;;;6.35;1.80;;;;;;;;;;6306192;22;20370;-93
2023/05/02 02:17:42;;;;;;;5.97;2.03;;;;;;;;;;6278974;22;20007;-91
2023/05/02 02:20:09;;;;;;;5.15;1.90;;;;;;;;;;6305828;22;19999;-92
2023/05/02 02:22:37;;;;;;;3.65;1.77;;;;;;;;;;6303757;22;19999;-91
2023/05/02 02:25:06;;;;;;;4.13;2.00;;;;;;;;;;6304643;22;19999;-90
2023/05/02 02:27:32;;;;;;;4.18;1.75;;;;;;;;;;6305972;22;20022;-93
2023/05/02 02:29:58;;;;;;;7.10;2.10;;;;;;;;;;6305922;22;20040;-90
2023/05/02 02:32:23;;;;;;;5.22;2.10;;;;;;;;;;6305025;22;20007;-91
2023/05/02 02:34:49;;;;;;;4.13;2.17;;;;;;;;;;6304862;22;19999;-92
2023/05/02 02:37:23;;;;;;;5.93;2.10;;;;;;;;;;6307571;22;20015;-94
2023/05/02 02:40:03;;;;;;;5.03;1.75;;;;;;;;;;6307240;22;20026;-91
2023/05/02 02:42:28;;;;;;;4.55;2.00;;;;;;;;;;6306111;22;19999;-94
2023/05/02 02:45:11;;;;;;;3.83;2.10;;;;;;;;;;6309237;22;20004;-92
2023/05/02 02:47:55;;;;;;;4.85;1.98;;;;;;;;;;6307356;22;20416;-92
2023/05/02 02:50:37;;;;;;;10.30;2.67;;;;;;;;;;6305771;22;20037;-92
2023/05/02 02:53:08;;;;;;;5.95;2.30;;;;;;;;;;6305883;22;20007;-92
2023/05/02 02:55:49;;;;;;;5.07;2.08;;;;;;;;;;6278696;22;20007;-92
2023/05/02 02:58:49;;;;;;;6.30;2.30;;;;;;;;;;6306071;22;20026;-91
2023/05/02 03:01:19;;;;;;;6.47;2.45;;;;;;;;;;6244787;22;20489;-90
2023/05/02 03:03:46;;;;;;;6.05;2.63;;;;;;;;;;6304380;22;20003;-89
2023/05/02 03:06:12;;;;;;;7.82;3.10;;;;;;;;;;6303875;22;20010;-91
2023/05/02 03:08:41;;;;;;;7.10;2.90;;;;;;;;;;6275983;22;20413;-90
2023/05/02 03:11:08;;;;;;;7.85;3.08;;;;;;;;;;6304171;22;20102;-91
2023/05/02 03:13:34;;;;;;;8.90;3.08;;;;;;;;;;6305877;22;19999;-92
2023/05/02 03:16:17;;;;;;;6.63;2.95;;;;;;;;;;6306218;22;19999;-92
2023/05/02 03:18:43;;;;;;;7.72;3.38;;;;;;;;;;6278404;22;20415;-91
2023/05/02 03:21:09;;;;;;;6.75;3.08;;;;;;;;;;6304815;22;20082;-91
2023/05/02 03:23:34;;;;;;;6.70;2.97;;;;;;;;;;6305761;22;20003;-91
2023/05/02 03:26:01;;;;;;;8.90;3.20;;;;;;;;;;6305710;22;20066;-91
2023/05/02 03:28:27;;;;;;;7.25;2.90;;;;;;;;;;6305473;22;20007;-91
2023/05/02 03:30:55;;;;;;;9.18;3.15;;;;;;;;;;6305600;22;20074;-90
2023/05/02 03:33:20;;;;;;;5.72;3.03;;;;;;;;;;6305258;22;20064;-89
2023/05/02 03:35:46;;;;;;;6.57;2.92;;;;;;;;;;6305044;22;19999;-90
2023/05/02 03:38:12;;;;;;;9.50;3.30;;;;;;;;;;6304345;22;20011;-90
2023/05/02 03:40:37;;;;;;;7.00;3.10;;;;;;;;;;6305024;22;20082;-90
2023/05/02 03:43:02;;;;;;;9.25;3.10;;;;;;;;;;6305215;22;20034;-90
2023/05/02 03:45:28;;;;;;;10.65;3.28;;;;;;;;;;6304855;22;20082;-90
2023/05/02 03:47:53;;;;;;;6.45;2.75;;;;;;;;;;6304959;22;20007;-90
2023/05/02 03:50:19;;;;;;;6.95;2.88;;;;;;;;;;6305538;22;20004;-91
2023/05/02 03:52:44;;;;;;;5.07;2.85;;;;;;;;;;6304982;22;20355;-88
2023/05/02 03:55:10;;;;;;;8.02;3.35;;;;;;;;;;6305434;22;19999;-91
2023/05/02 03:57:36;;;;;;;7.05;3.30;;;;;;;;;;6273521;22;20020;-91
2023/05/02 04:00:02;;;;;;;9.98;3.25;;;;;;;;;;6273085;22;20004;-90
2023/05/02 04:02:28;;;;;;;9.05;3.28;;;;;;;;;;6272437;22;20459;-91
2023/05/02 04:04:54;;;;;;;8.43;3.30;;;;;;;;;;6272811;22;20000;-89
2023/05/02 04:07:19;;;;;;;9.57;3.80;;;;;;;;;;6272731;22;20007;-90
2023/05/02 04:09:45;;;;;;;10.07;3.88;;;;;;;;;;6245900;22;20411;-90
2023/05/02 04:12:12;;;;;;;9.98;3.80;;;;;;;;;;6272545;22;20086;-85
2023/05/02 04:14:37;;;;;;;8.05;3.28;;;;;;;;;;6272388;22;20057;-89
2023/05/02 04:17:02;;;;;;;8.35;2.83;;;;;;;;;;6272208;22;20003;-87
2023/05/02 04:19:28;;;;;;;11.32;3.50;;;;;;;;;;6271832;22;20335;-89
2023/05/02 04:21:53;;;;;;;6.18;2.90;;;;;;;;;;6244538;22;20007;-90
2023/05/02 04:24:19;;;;;;;5.88;2.70;;;;;;;;;;6272292;22;20000;-89
2023/05/02 04:26:47;;;;;;;5.53;2.70;;;;;;;;;;6272528;22;20027;-88
2023/05/02 04:29:13;;;;;;;7.40;2.95;;;;;;;;;;6244711;22;20035;-89
2023/05/02 04:31:38;;;;;;;6.35;2.72;;;;;;;;;;6272562;22;20053;-90
2023/05/02 04:34:04;;;;;;;9.35;2.90;;;;;;;;;;6272538;22;20031;-87
2023/05/02 04:36:30;;;;;;;8.02;2.85;;;;;;;;;;6271522;22;20411;-90
2023/05/02 04:38:55;;;;;;;7.03;2.95;;;;;;;;;;6271611;22;20095;-88
2023/05/02 04:41:22;;;;;;;8.63;2.80;;;;;;;;;;6271850;22;20061;-88
2023/05/02 04:43:47;;;;;;;6.30;2.40;;;;;;;;;;6271299;22;20004;-89
2023/05/02 04:46:12;;;;;;;6.85;2.45;;;;;;;;;;6271911;22;20003;-89
2023/05/02 04:48:41;;;;;;;9.82;2.60;;;;;;;;;;6271908;22;20035;-90
2023/05/02 04:51:08;;;;;;;7.63;2.60;;;;;;;;;;6271532;22;20451;-89
2023/05/02 04:53:34;;;;;;;6.65;2.53;;;;;;;;;;6271142;22;20003;-89
2023/05/02 04:55:59;;;;;;;7.10;2.70;;;;;;;;;;6271890;22;20023;-90
2023/05/02 04:58:25;;;;;;;7.55;2.90;;;;;;;;;;6271832;22;20006;-87
2023/05/02 05:00:50;;;;;;;7.05;2.92;;;;;;;;;;6271273;22;20045;-84
2023/05/02 05:03:16;;;;;;;7.68;2.80;;;;;;;;;;6271310;22;20029;-85
2023/05/02 05:05:41;;;;;;;12.23;3.33;;;;;;;;;;6271549;22;20007;-87
2023/05/02 05:08:07;;;;;;;7.38;3.15;;;;;;;;;;6270787;22;20003;-88
2023/05/02 05:10:32;;;;;;;5.45;2.55;;;;;;;;;;6272998;22;20408;-88
2023/05/02 05:12:58;;;;;;;11.88;6.45;;;;;;;;;;6272086;22;20121;-89
2023/05/02 05:15:24;;;;;;;5.72;3.10;;;;;;;;;;6270843;22;20344;-85
2023/05/02 05:17:50;;;;;;;6.80;3.22;;;;;;;;;;6271997;22;20137;-89
2023/05/02 05:20:16;;;;;;;7.63;3.00;;;;;;;;;;6272137;22;20054;-89
2023/05/02 05:22:41;;;;;;;9.52;3.20;;;;;;;;;;6272240;22;20000;-90
2023/05/02 05:25:10;;;;;;;8.75;3.33;;;;;;;;;;6271371;22;20003;-88
2023/05/02 05:27:36;;;;;;;11.02;3.00;;;;;;;;;;6271654;22;19999;-89
2023/05/02 05:30:05;;;;;;;6.18;2.67;;;;;;;;;;6271572;22;20012;-88
2023/05/02 05:32:34;;;;;;;9.45;3.47;;;;;;;;;;6271140;22;20343;-88
2023/05/02 05:35:00;;;;;;;6.93;3.10;;;;;;;;;;6270711;22;20004;-88
2023/05/02 05:37:25;;;;;;;9.93;3.10;;;;;;;;;;6270494;22;20050;-87
2023/05/02 05:39:51;;;;;;;7.75;3.17;;;;;;;;;;6270566;22;20078;-86
2023/05/02 05:42:16;;;;;;;7.88;3.15;;;;;;;;;;6270723;22;20007;-87
2023/05/02 05:44:41;;;;;;;8.95;3.20;;;;;;;;;;6270858;22;20004;-87
2023/05/02 05:47:07;;;;;;;7.78;2.65;;;;;;;;;;6270664;22;20010;-86
2023/05/02 05:49:35;;;;;;;8.57;3.08;;;;;;;;;;6270622;22;20011;-86
2023/05/02 05:52:01;;;;;;;5.57;3.00;;;;;;;;;;6270579;22;19999;-87
2023/05/02 05:54:27;;;;;;;8.23;2.90;;;;;;;;;;6270587;22;20471;-87
2023/05/02 05:56:52;;;;;;;10.85;4.45;;;;;;;;;;6270866;22;20000;-87
2023/05/02 05:59:18;;;;;;;7.88;3.40;;;;;;;;;;6272953;22;19999;-85
2023/05/02 06:01:43;;;;;;;5.55;3.00;;;;;;;;;;6270498;22;20010;-85
2023/05/02 06:04:09;;;;;;;7.53;3.00;;;;;;;;;;6270456;22;20014;-87
2023/05/02 06:06:34;;;;;;;8.15;3.08;;;;;;;;;;6270312;22;20453;-87
2023/05/02 06:09:00;;;;;;;7.43;3.45;;;;;;;;;;6270594;22;20043;-87
2023/05/02 06:11:26;;;;;;;7.38;3.05;;;;;;;;;;6270872;22;20003;-88
2023/05/02 06:13:52;;;;;;;6.50;2.90;;;;;;;;;;6272460;22;20134;-88
2023/05/02 06:16:18;;;;;;;8.20;2.92;;;;;;;;;;6271612;22;20000;-87
2023/05/02 06:18:49;;;;;;;5.90;2.88;;;;;;;;;;6270718;22;20351;-87
2023/05/02 06:21:14;;;;;;;8.80;3.17;;;;;;;;;;6242893;22;20000;-87
2023/05/02 06:23:40;;;;;;;6.97;3.00;;;;;;;;;;6243482;22;20010;-87
2023/05/02 06:26:05;;;;;;;9.05;2.97;;;;;;;;;;6270627;22;20011;-85
2023/05/02 06:28:31;;;;;;;4.95;2.75;;;;;;;;;;6270671;22;20107;-89
2023/05/02 06:31:01;;;;;;;4.90;2.90;;;;;;;;;;6270920;22;20007;-86
2023/05/02 06:33:31;;;;;;;7.13;3.05;;;;;;;;;;6270569;22;20050;-88
2023/05/02 06:35:57;;;;;;;7.40;2.87;;;;;;;;;;6270251;22;20474;-79
2023/05/02 06:38:23;;;;;;;9.35;3.22;;;;;;;;;;6271887;22;20012;-85
2023/05/02 06:40:50;;;;;;;7.35;2.75;;;;;;;;;;6270530;22;20011;-82
2023/05/02 06:43:16;;;;;;;6.97;3.10;;;;;;;;;;6270534;22;20004;-82
2023/05/02 06:45:44;;;;;;;6.10;2.53;;;;;;;;;;6272123;22;20446;-87
2023/05/02 06:48:10;;;;;;;9.98;3.13;;;;;;;;;;6272460;22;20030;-85
2023/05/02 06:50:36;;;;;;;10.77;3.40;;;;;;;;;;6270428;22;20010;-83
2023/05/02 06:53:02;;;;;;;7.32;2.92;;;;;;;;;;6271146;22;20011;-85
2023/05/02 06:55:28;;;;;;;7.50;3.05;;;;;;;;;;6271454;22;20018;-87
2023/05/02 06:57:54;;;;;;;11.30;4.05;;;;;;;;;;6270654;22;20000;-86
2023/05/02 07:00:19;;;;;;;6.07;2.97;;;;;;;;;;6243519;22;20004;-84
2023/05/02 07:02:46;;;;;;;7.40;3.20;;;;;;;;;;6270597;22;20059;-87
2023/05/02 07:05:14;;;;;;;8.57;3.60;;;;;;;;;;6271876;22;20007;-85
2023/05/02 07:07:43;;;;;;;7.05;3.17;;;;;;;;;;6271792;22;20045;-85
2023/05/02 07:10:10;;;;;;;6.88;3.08;;;;;;;;;;6272370;22;20451;-84
2023/05/02 07:12:35;;;;;;;7.93;3.45;;;;;;;;;;6271768;22;20087;-86
2023/05/02 07:15:01;;;;;;;8.55;2.90;;;;;;;;;;6271842;22;20046;-80
2023/05/02 07:17:26;;;;;;;9.23;2.97;;;;;;;;;;6272160;22;20006;-85
2023/05/02 07:19:52;;;;;;;8.23;3.00;;;;;;;;;;6272052;22;19999;-85
2023/05/02 07:22:18;;;;;;;8.30;3.35;;;;;;;;;;6278316;22;20299;-87
2023/05/02 07:24:44;;;;;;;6.18;2.90;;;;;;;;;;6278533;22;20018;-86
2023/05/02 07:27:10;;;;;;;7.00;2.80;;;;;;;;;;6283767;22;20020;-86
2023/05/02 07:29:36;;;;;;;7.95;3.10;;;;;;;;;;6283271;22;20177;-82
2023/05/02 07:32:02;;;;;;;7.65;3.50;;;;;;;;;;6283356;22;20026;-79
2023/05/02 07:34:28;;;;;;;12.15;4.03;;;;;;;;;;6283632;22;19996;-82
2023/05/02 07:36:53;;;;;;;9.07;3.80;;;;;;;;;;6283018;22;20054;-82
2023/05/02 07:39:18;;;;;;;8.27;3.30;;;;;;;;;;6282404;22;20057;-84
2023/05/02 07:41:44;;;;;;;6.00;2.83;;;;;;;;;;6256062;22;20027;-82
2023/05/02 07:44:10;;;;;;;8.48;3.03;;;;;;;;;;6282012;22;20466;-83
2023/05/02 07:46:36;;;;;;;8.02;3.13;;;;;;;;;;6255724;22;20003;-83
2023/05/02 07:49:01;;;;;;;10.32;3.55;;;;;;;;;;6282273;22;20012;-84
2023/05/02 07:51:26;;;;;;;8.40;3.40;;;;;;;;;;6282098;22;19996;-83
2023/05/02 07:53:54;;;;;;;9.10;2.72;;;;;;;;;;6283148;22;20033;-84
2023/05/02 07:56:20;;;;;;;5.90;3.00;;;;;;;;;;6282828;22;19995;-84
2023/05/02 07:58:45;;;;;;;7.22;2.65;;;;;;;;;;6283290;22;19996;-82
2023/05/02 08:01:11;;;;;;;6.28;2.60;;;;;;;;;;6285185;22;20019;-83
2023/05/02 08:03:36;;;;;;;5.43;2.17;;;;;;;;;;6282667;22;19996;-84
2023/05/02 08:06:02;;;;;;;7.32;2.40;;;;;;;;;;6282305;22;20014;-79
2023/05/02 08:08:28;;;;;;;7.35;2.35;;;;;;;;;;6281083;22;20311;-82
2023/05/02 08:10:53;;;;;;;5.78;2.42;;;;;;;;;;6253279;22;20004;-82
2023/05/02 08:13:19;;;;;;;11.10;2.42;;;;;;;;;;6274250;22;19999;-80
2023/05/02 08:15:44;;;;;;;5.82;2.40;;;;;;;;;;6281528;22;20008;-80
2023/05/02 08:18:10;;;;;;;5.93;2.53;;;;;;;;;;6280976;22;20110;-81
2023/05/02 08:20:35;;;;;;;7.07;2.45;;;;;;;;;;6281058;22;20054;-80
2023/05/02 08:23:01;;;;;;;5.90;2.60;;;;;;;;;;6278842;22;20004;-81
2023/05/02 08:25:26;;;;;;;5.95;2.78;;;;;;;;;;6275489;22;20042;-79
2023/05/02 08:27:52;;;;;;;6.80;2.20;;;;;;;;;;6273452;22;20375;-77
2023/05/02 08:30:17;;;;;;;4.15;2.28;;;;;;;;;;6276073;22;19995;-78
2023/05/02 08:32:45;;;;;;;5.25;2.28;;;;;;;;;;6279473;22;20006;-78
2023/05/02 08:35:10;;;;;;;7.82;2.47;;;;;;;;;;6271246;22;20082;-77
2023/05/02 08:37:36;;;;;;;10.40;2.72;;;;;;;;;;6270809;22;20058;-77
2023/05/02 08:40:01;;;;;;;6.57;2.13;;;;;;;;;;6276848;22;20020;-77
2023/05/02 08:42:29;;;;;;;5.55;2.40;;;;;;;;;;6277574;22;20316;-77
2023/05/02 08:44:54;;;;;;;6.13;2.40;;;;;;;;;;6271633;22;20447;-78
2023/05/02 08:47:22;;;;;;;4.18;2.15;;;;;;;;;;6244124;22;20003;-78
2023/05/02 08:49:48;;;;;;;6.53;2.10;;;;;;;;;;6275622;22;20008;-78
2023/05/02 08:52:14;;;;;;;5.72;2.05;;;;;;;;;;6271093;22;20309;-78
2023/05/02 08:54:40;;;;;;;8.30;2.33;;;;;;;;;;6280130;22;19992;-78
2023/05/02 08:57:06;;;;;;;5.75;2.38;;;;;;;;;;6282462;22;20054;-78
2023/05/02 08:59:32;;;;;;;4.32;2.00;;;;;;;;;;6282225;22;20003;-78
2023/05/02 09:02:16;;;;;;;8.25;2.28;;;;;;;;;;6254254;22;20061;-77
2023/05/02 09:04:43;;;;;;;9.50;3.95;;;;;;;;;;6282304;22;20000;-78
2023/05/02 09:07:09;;;;;;;10.35;2.60;;;;;;;;;;6280941;22;20008;-78
2023/05/02 09:09:35;;;;;;;4.38;2.00;;;;;;;;;;6280127;22;19996;-76
2023/05/02 09:12:01;;;;;;;5.78;1.90;;;;;;;;;;6282373;22;20090;-76
2023/05/02 09:14:27;;;;;;;6.50;2.20;;;;;;;;;;6280866;22;20058;-76
2023/05/02 09:16:58;;;;;;;7.78;1.98;;;;;;;;;;6280892;22;19995;-77
2023/05/02 09:19:25;;;;;;;3.55;1.90;;;;;;;;;;6279094;22;20019;-76
2023/05/02 09:21:51;;;;;;;5.85;2.00;;;;;;;;;;6279310;22;19999;-75
2023/05/02 09:24:21;;;;;;;6.85;2.30;;;;;;;;;;6279730;22;20317;-76
2023/05/02 09:26:57;;;;;;;6.05;1.90;;;;;;;;;;6279527;22;20009;-75
2023/05/02 09:29:23;;;;;;;6.72;2.22;;;;;;;;;;6279737;22;20338;-75
2023/05/02 09:31:48;;;;;;;4.15;1.80;;;;;;;;;;6252380;22;20003;-78
2023/05/02 09:34:17;;;;;;;6.28;1.90;;;;;;;;;;6280355;22;20010;-77
2023/05/02 09:36:44;;;;;;;5.18;1.95;;;;;;;;;;6279828;22;20035;-77
2023/05/02 09:39:17;;;;;;;4.43;2.08;;;;;;;;;;6280760;22;19995;-77
2023/05/02 09:41:45;;;;;;;4.82;1.75;;;;;;;;;;6280748;22;20275;-78
2023/05/02 09:44:12;;;;;;;4.53;1.67;;;;;;;;;;6280662;22;19999;-78
2023/05/02 09:46:42;;;;;;;3.90;1.63;;;;;;;;;;6280899;22;19996;-77
2023/05/02 09:49:11;;;;;;;4.70;1.70;;;;;;;;;;6281525;22;20007;-78
2023/05/02 09:51:37;;;;;;;4.35;1.60;;;;;;;;;;6280594;22;20067;-78
2023/05/02 09:54:03;;;;;;;4.50;1.55;;;;;;;;;;6280183;22;20007;-77
2023/05/02 09:56:28;;;;;;;4.40;1.67;;;;;;;;;;6280712;22;20003;-77
2023/05/02 09:59:13;;;;;;;5.85;1.45;;;;;;;;;;6281359;22;20016;-77
2023/05/02 10:01:39;;;;;;;7.05;1.80;;;;;;;;;;6281025;22;20296;-78
2023/05/02 10:04:06;;;;;;;4.28;1.73;;;;;;;;;;6280244;22;20048;-78
2023/05/02 10:06:32;;;;;;;7.07;1.65;;;;;;;;;;6280736;22;20012;-78
2023/05/02 10:08:58;;;;;;;4.65;1.35;;;;;;;;;;6280478;22;20149;-80
2023/05/02 10:11:24;;;;;;;5.32;1.40;;;;;;;;;;6279780;22;20007;-79
2023/05/02 10:13:51;;;;;;;4.38;1.40;;;;;;;;;;6280231;22;20000;-78
2023/05/02 10:16:27;;;;;;;4.00;1.05;;;;;;;;;;6254111;22;20061;-80
2023/05/02 10:18:53;;;;;;;3.65;1.35;;;;;;;;;;6281440;22;20162;-79
2023/05/02 10:21:27;;;;;;;3.40;1.08;;;;;;;;;;6281232;22;20030;-79
2023/05/02 10:23:53;;;;;;;4.05;1.10;;;;;;;;;;6280741;22;20295;-80
2023/05/02 10:26:22;;;;;;;2.17;1.00;;;;;;;;;;6280902;22;19998;-82
2023/05/02 10:28:48;;;;;;;3.13;1.30;;;;;;;;;;6281257;22;20349;-78
2023/05/02 10:31:15;;;;;;;2.90;1.10;;;;;;;;;;6281423;22;19999;-81
2023/05/02 10:33:40;;;;;;;4.65;1.50;;;;;;;;;;6281676;22;20000;-78
2023/05/02 10:36:09;;;;;;;6.63;1.55;;;;;;;;;;6280505;22;20023;-81
2023/05/02 10:38:36;;;;;;;4.45;1.40;;;;;;;;;;6280697;22;20008;-82
2023/05/02 10:41:07;;;;;;;3.55;1.33;;;;;;;;;;6280615;22;20319;-81
2023/05/02 10:43:35;;;;;;;4.50;1.40;;;;;;;;;;6280165;22;20348;-82
2023/05/02 10:46:02;;;;;;;5.00;1.35;;;;;;;;;;6280165;22;20031;-82
2023/05/02 10:48:28;;;;;;;3.53;1.40;;;;;;;;;;6280448;22;20011;-86
2023/05/02 10:51:00;;;;;;;3.75;1.20;;;;;;;;;;6281351;22;19996;-85
2023/05/02 10:53:36;;;;;;;4.43;1.40;;;;;;;;;;6280521;22;20007;-84
2023/05/02 10:56:24;;;;;;;4.55;1.20;;;;;;;;;;6254263;22;20317;-85
2023/05/02 10:58:52;;;;;;;2.05;1.10;;;;;;;;;;6254437;22;20287;-85
2023/05/02 11:01:38;;;;;;;4.57;1.05;;;;;;;;;;6280507;22;20049;-83
2023/05/02 11:04:06;;;;;;;3.50;1.10;;;;;;;;;;6281419;22;20003;-78
2023/05/02 11:06:34;;;;;;;2.75;1.15;;;;;;;;;;6281633;22;20465;-78
2023/05/02 11:09:13;;;;;;;5.20;1.10;;;;;;;;;;6281703;22;20014;-81
2023/05/02 11:11:43;;;;;;;3.22;1.02;;;;;;;;;;6281989;22;20054;-82
2023/05/02 11:14:29;;;;;;;3.60;1.10;;;;;;;;;;6281737;22;19996;-77
2023/05/02 11:17:03;;;;;;;2.60;0.90;;;;;;;;;;6250282;22;20237;-80
2023/05/02 11:19:44;;;;;;;3.40;1.00;;;;;;;;;;6279974;22;20026;-80
2023/05/02 11:22:23;;;;;;;2.88;1.10;;;;;;;;;;6277304;22;20234;-80
2023/05/02 11:24:51;;;;;;;5.80;1.10;;;;;;;;;;6279025;22;20436;-79
2023/05/02 11:27:42;;;;;;;3.33;1.30;;;;;;;;;;6279875;22;20000;-79
2023/05/02 11:30:08;;;;;;;;;;;;;;;;;;6264193;22;20356;-78
2023/05/02 11:32:46;;;;;;;4.13;1.20;;;;;;;;;;6280136;22;19907;-79
2023/05/02 11:35:16;;;;;;;4.18;1.20;;;;;;;;;;6282177;22;19999;-78
2023/05/02 11:37:41;;;;;;;2.75;1.10;;;;;;;;;;6280951;22;20004;-80
2023/05/02 11:40:13;;;;;;;5.57;1.20;;;;;;;;;;6281953;22;20236;-78
2023/05/02 11:42:40;;;;;;;2.70;1.10;;;;;;;;;;6281846;22;20280;-78
2023/05/02 11:45:06;;;;;;;5.00;1.20;;;;;;;;;;6281667;22;20000;-79
2023/05/02 11:47:32;;;;;;;2.03;0.82;;;;;;;;;;6281792;22;20000;-79
2023/05/02 11:50:01;;;;;;;2.70;1.20;;;;;;;;;;6281839;22;20049;-79
2023/05/02 11:52:26;;;;;;;2.53;1.33;;;;;;;;;;6281289;22;20325;-78
2023/05/02 11:54:55;;;;;;;2.40;1.08;;;;;;;;;;6281354;22;20015;-80
2023/05/02 11:57:22;;;;;;;2.95;1.20;;;;;;;;;;6281734;22;20059;-79
2023/05/02 11:59:51;;;;;;;2.38;0.95;;;;;;;;;;6282026;22;19996;-78
2023/05/02 12:02:17;;;;;;;3.63;1.00;;;;;;;;;;6255691;22;20169;-79
2023/05/02 12:04:45;;;;;;;3.28;1.20;;;;;;;;;;6281215;22;20438;-80
2023/05/02 12:07:11;;;;;;;2.72;1.10;;;;;;;;;;6281526;22;20000;-79
2023/05/02 12:09:52;;;;;;;4.93;1.25;;;;;;;;;;6281723;22;20027;-79
2023/05/02 12:12:21;;;;;;;4.22;1.00;;;;;;;;;;6281798;22;20000;-79
2023/05/02 12:14:46;;;;;;;3.72;1.10;;;;;;;;;;6281083;22;20066;-79
2023/05/02 12:17:12;;;;;;;2.95;1.05;;;;;;;;;;6282990;22;20387;-79
2023/05/02 12:19:38;;;;;;;3.75;1.30;;;;;;;;;;6283109;22;20043;-79
2023/05/02 12:22:04;;;;;;;5.22;1.42;;;;;;;;;;6282752;22;20000;-79
2023/05/02 12:24:30;;;;;;;3.08;1.10;;;;;;;;;;6283005;22;20027;-79
2023/05/02 12:27:15;;;;;;;5.13;0.90;;;;;;;;;;6281926;22;19987;-80
2023/05/02 12:29:45;;;;;;;3.38;0.93;;;;;;;;;;6281221;22;20303;-79
2023/05/02 12:32:13;;;;;;;3.00;0.90;;;;;;;;;;6281456;22;20162;-80
2023/05/02 12:34:39;;;;;;;2.38;0.85;;;;;;;;;;6281357;22;20000;-79
2023/05/02 12:37:05;;;;;;;2.20;0.88;;;;;;;;;;6254177;22;20008;-79
2023/05/02 12:39:38;;;;;;;3.42;1.02;;;;;;;;;;6280992;22;19999;-79
2023/05/02 12:42:14;;;;;;;5.28;1.30;;;;;;;;;;6281328;22;20131;-79
2023/05/02 12:44:42;;;;;;;2.03;0.90;;;;;;;;;;6280716;22;20003;-79
2023/05/02 12:47:10;;;;;;;3.70;1.00;;;;;;;;;;6281548;22;20101;-80
2023/05/02 12:49:55;;;;;;;5.30;0.80;;;;;;;;;;6280914;22;20004;-80
2023/05/02 12:52:41;;;;;;;3.25;1.20;;;;;;;;;;6282031;22;20373;-79
2023/05/02 12:55:20;;;;;;;2.70;1.00;;;;;;;;;;6281247;22;20283;-80
2023/05/02 12:57:45;;;;;;;2.15;1.02;;;;;;;;;;6281567;22;20071;-79
2023/05/02 13:00:12;;;;;;;3.45;1.15;;;;;;;;;;6280939;22;20489;-80
2023/05/02 13:02:37;;;;;;;4.05;0.88;;;;;;;;;;6254399;22;20061;-79
2023/05/02 13:05:16;;;;;;;3.10;1.10;;;;;;;;;;6280490;22;20028;-80
2023/05/02 13:07:41;;;;;;;4.05;1.17;;;;;;;;;;6280693;22;20038;-79
2023/05/02 13:10:08;;;;;;;5.93;1.10;;;;;;;;;;6281068;22;19996;-78
2023/05/02 13:12:36;;;;;;;2.22;0.90;;;;;;;;;;6281156;22;19995;-80
2023/05/02 13:15:03;;;;;;;2.63;0.93;;;;;;;;;;6280839;22;19996;-79
2023/05/02 13:17:28;;;;;;;1.35;0.80;;;;;;;;;;6281589;22;20114;-80
2023/05/02 13:19:54;;;;;;;2.25;0.82;;;;;;;;;;6280728;22;20291;-79
2023/05/02 13:22:19;;;;;;;1.58;0.70;;;;;;;;;;6280243;22;20000;-79
2023/05/02 13:24:45;;;;;;;2.35;0.75;;;;;;;;;;6280472;22;20038;-79
2023/05/02 13:27:11;;;;;;;2.33;0.88;;;;;;;;;;6280864;22;20007;-80
2023/05/02 13:29:36;;;;;;;2.88;0.88;;;;;;;;;;6280605;22;20188;-79
2023/05/02 13:32:01;;;;;;;3.50;0.88;;;;;;;;;;6281397;22;20025;-79
2023/05/02 13:34:27;;;;;;;2.85;1.00;;;;;;;;;;6280928;22;20007;-79
2023/05/02 13:36:53;;;;;;;2.67;0.95;;;;;;;;;;6280528;22;20299;-79
2023/05/02 13:39:18;;;;;;;1.23;0.73;;;;;;;;;;6280567;22;20025;-78
2023/05/02 13:41:43;;;;;;;1.42;0.80;;;;;;;;;;6280660;22;20000;-80
2023/05/02 13:44:09;;;;;;;2.58;0.88;;;;;;;;;;6280793;22;20352;-80
2023/05/02 13:46:36;;;;;;;3.83;1.20;;;;;;;;;;6280863;22;20007;-80
2023/05/02 13:49:02;;;;;;;4.13;0.82;;;;;;;;;;6280893;22;20342;-79
2023/05/02 13:51:30;;;;;;;2.83;0.93;;;;;;;;;;6280015;22;20011;-79
2023/05/02 13:53:56;;;;;;;2.80;0.80;;;;;;;;;;6280862;22;20050;-79
2023/05/02 13:56:22;;;;;;;1.17;0.70;;;;;;;;;;6280102;22;20045;-78
2023/05/02 13:58:47;;;;;;;2.38;0.90;;;;;;;;;;6253580;22;20223;-80
2023/05/02 14:01:12;;;;;;;3.28;1.00;;;;;;;;;;6280595;22;19999;-78
2023/05/02 14:03:38;;;;;;;1.58;0.80;;;;;;;;;;6281157;22;20011;-78
2023/05/02 14:06:04;;;;;;;3.15;0.90;;;;;;;;;;6281368;22;20018;-79
2023/05/02 14:08:29;;;;;;;2.38;0.90;;;;;;;;;;6282307;22;20010;-79
2023/05/02 14:10:54;;;;;;;2.78;1.10;;;;;;;;;;6281989;22;20000;-79
2023/05/02 14:13:20;;;;;;;1.73;0.90;;;;;;;;;;6279944;22;20012;-79
2023/05/02 14:15:45;;;;;;;2.15;0.80;;;;;;;;;;6253232;22;20003;-79
2023/05/02 14:18:11;;;;;;;2.55;1.00;;;;;;;;;;6280207;22;19999;-78
2023/05/02 14:20:36;;;;;;;2.03;0.95;;;;;;;;;;6279902;22;20060;-80
2023/05/02 14:23:01;;;;;;;2.17;0.88;;;;;;;;;;6279815;22;19998;-79
2023/05/02 14:25:27;;;;;;;2.85;0.90;;;;;;;;;;6280073;22;20000;-77
2023/05/02 14:27:52;;;;;;;10.35;7.75;;;;;;;;;;6280320;22;20000;-77
2023/05/02 14:30:18;;;;;;;2.05;1.30;;;;;;;;;;6280575;22;20000;-78
2023/05/02 14:32:43;;;;;;;2.03;0.90;;;;;;;;;;6280783;22;20024;-80
2023/05/02 14:35:08;;;;;;;2.28;1.35;;;;;;;;;;6280375;22;20059;-79
2023/05/02 14:37:34;;;;;;;1.85;0.70;;;;;;;;;;6279974;22;20086;-79
2023/05/02 14:40:00;;;;;;;1.98;0.82;;;;;;;;;;6279845;22;20041;-79
2023/05/02 14:42:25;;;;;;;3.03;0.80;;;;;;;;;;6280485;22;19996;-79
2023/05/02 14:44:51;;;;;;;1.77;0.80;;;;;;;;;;6253613;22;20071;-80
2023/05/02 14:47:16;;;;;;;3.53;0.98;;;;;;;;;;6280166;22;20004;-79